Time;durP1;ratioP1;P1;durP2;ratioP2;P2;SDS_P1;SDS_P2;PMS_P1;PMS_P2;Temp;Humidity;BMP_temperature;BMP_pressure;BME280_temperature;BME280_humidity;BME280_pressure;Samples;Min_cycle;Max_cycle;Signal;HPM_P1;HPM_P2
2023/06/19 00:00:16;;;;;;;5.90;3.65;;;;;;;;;;5147191;27;20039;-73
2023/06/19 00:02:48;;;;;;;7.70;4.13;;;;;;;;;;5129091;27;20521;-74
2023/06/19 00:05:19;;;;;;;7.75;3.80;;;;;;;;;;5147889;27;20054;-74
2023/06/19 00:07:51;;;;;;;5.93;3.80;;;;;;;;;;5148139;27;20053;-74
2023/06/19 00:10:21;;;;;;;6.43;3.63;;;;;;;;;;5147666;27;20046;-74
2023/06/19 00:12:53;;;;;;;6.03;3.50;;;;;;;;;;5148174;27;20042;-74
2023/06/19 00:15:25;;;;;;;6.55;3.10;;;;;;;;;;5148959;27;20051;-73
2023/06/19 00:17:56;;;;;;;5.45;3.20;;;;;;;;;;5148183;27;20509;-74
2023/06/19 00:20:26;;;;;;;7.68;4.10;;;;;;;;;;5147841;27;20508;-74
2023/06/19 00:22:59;;;;;;;6.68;3.65;;;;;;;;;;5130443;27;20047;-74
2023/06/19 00:25:30;;;;;;;4.78;3.50;;;;;;;;;;5130820;27;20046;-74
2023/06/19 00:28:01;;;;;;;8.43;4.10;;;;;;;;;;5128343;27;20051;-73
2023/06/19 00:30:32;;;;;;;5.35;3.47;;;;;;;;;;5128641;27;20050;-74
2023/06/19 00:33:03;;;;;;;5.75;4.07;;;;;;;;;;5127024;27;20054;-74
2023/06/19 00:35:34;;;;;;;6.03;3.63;;;;;;;;;;5129305;27;20501;-73
2023/06/19 00:38:06;;;;;;;8.35;3.85;;;;;;;;;;5147169;27;20393;-73
2023/06/19 00:40:36;;;;;;;;;;;;;;;;;;5146112;27;20062;-73
2023/06/19 00:43:10;;;;;;;6.03;3.80;;;;;;;;;;5145087;27;20620;-74
2023/06/19 00:45:41;;;;;;;7.13;4.40;;;;;;;;;;5125407;27;20054;-74
2023/06/19 00:48:13;;;;;;;7.43;4.38;;;;;;;;;;5115402;27;20090;-74
2023/06/19 00:50:45;;;;;;;7.25;4.35;;;;;;;;;;5104707;28;20806;-73
2023/06/19 00:53:16;;;;;;;6.68;4.20;;;;;;;;;;5104345;28;20406;-74
2023/06/19 00:55:49;;;;;;;7.10;4.50;;;;;;;;;;5103932;28;20542;-73
2023/06/19 00:58:21;;;;;;;7.10;4.30;;;;;;;;;;5106481;28;20058;-73
2023/06/19 01:00:51;;;;;;;6.43;4.03;;;;;;;;;;5104767;28;20682;-73
2023/06/19 01:03:38;;;;;;;7.88;3.72;;;;;;;;;;5104101;28;20059;-73
2023/06/19 01:06:17;;;;;;;7.03;3.67;;;;;;;;;;5105888;28;20055;-75
2023/06/19 01:09:04;;;;;;;3.90;2.83;;;;;;;;;;5106322;28;20047;-74
2023/06/19 01:11:41;;;;;;;7.57;3.22;;;;;;;;;;5106095;28;20047;-73
2023/06/19 01:14:36;;;;;;;7.00;3.78;;;;;;;;;;5105934;28;20048;-74
2023/06/19 01:17:07;;;;;;;7.25;3.80;;;;;;;;;;5105654;28;20044;-74
2023/06/19 01:19:37;;;;;;;5.75;3.50;;;;;;;;;;5103358;28;20059;-74
2023/06/19 01:22:07;;;;;;;5.82;3.30;;;;;;;;;;5105786;28;20066;-73
2023/06/19 01:24:38;;;;;;;6.15;2.63;;;;;;;;;;5103922;28;20065;-74
2023/06/19 01:27:10;;;;;;;5.13;2.83;;;;;;;;;;5106157;28;20051;-73
2023/06/19 01:29:40;;;;;;;4.95;2.65;;;;;;;;;;5105661;28;20052;-73
2023/06/19 01:32:20;;;;;;;4.90;2.67;;;;;;;;;;5104504;28;20047;-74
2023/06/19 01:34:52;;;;;;;4.47;2.92;;;;;;;;;;5103822;28;20056;-73
2023/06/19 01:37:28;;;;;;;3.75;2.38;;;;;;;;;;5105480;28;20047;-73
2023/06/19 01:40:02;;;;;;;5.10;2.42;;;;;;;;;;5102356;28;20048;-73
2023/06/19 01:42:36;;;;;;;4.82;2.85;;;;;;;;;;5105435;28;20400;-73
2023/06/19 01:45:08;;;;;;;3.45;2.45;;;;;;;;;;5105006;28;20113;-74
2023/06/19 01:47:40;;;;;;;5.38;2.72;;;;;;;;;;5111319;27;20046;-73
2023/06/19 01:50:12;;;;;;;5.47;2.67;;;;;;;;;;5146608;27;20039;-73
2023/06/19 01:52:42;;;;;;;4.60;2.45;;;;;;;;;;5146660;27;20046;-73
2023/06/19 01:55:14;;;;;;;3.58;2.13;;;;;;;;;;5127646;27;20055;-74
2023/06/19 01:57:48;;;;;;;6.47;2.60;;;;;;;;;;5147048;27;20039;-73
2023/06/19 02:00:19;;;;;;;3.55;1.88;;;;;;;;;;5127560;27;20051;-73
2023/06/19 02:02:50;;;;;;;3.35;1.90;;;;;;;;;;5145514;27;20485;-73
2023/06/19 02:05:20;;;;;;;4.95;2.38;;;;;;;;;;5127764;27;20059;-74
2023/06/19 02:07:54;;;;;;;3.58;2.25;;;;;;;;;;5127168;27;20493;-74
2023/06/19 02:10:27;;;;;;;4.40;2.20;;;;;;;;;;5145671;27;20043;-73
2023/06/19 02:12:57;;;;;;;4.78;2.28;;;;;;;;;;5147089;27;20041;-73
2023/06/19 02:15:27;;;;;;;3.08;2.10;;;;;;;;;;5127657;27;20424;-73
2023/06/19 02:17:57;;;;;;;2.97;1.58;;;;;;;;;;5127335;27;20057;-73
2023/06/19 02:20:28;;;;;;;2.50;1.67;;;;;;;;;;5146162;27;20387;-73
2023/06/19 02:22:59;;;;;;;2.88;1.58;;;;;;;;;;5145832;27;20042;-73
2023/06/19 02:25:30;;;;;;;2.63;1.70;;;;;;;;;;5126778;27;20058;-74
2023/06/19 02:28:01;;;;;;;2.28;1.65;;;;;;;;;;5146222;27;20061;-73
2023/06/19 02:30:33;;;;;;;2.97;1.65;;;;;;;;;;5127637;27;20078;-73
2023/06/19 02:33:04;;;;;;;3.22;1.98;;;;;;;;;;5126941;27;20062;-73
2023/06/19 02:35:35;;;;;;;5.25;3.08;;;;;;;;;;5145713;27;20051;-73
2023/06/19 02:38:05;;;;;;;5.03;3.45;;;;;;;;;;5127485;27;20061;-73
2023/06/19 02:40:35;;;;;;;5.53;3.53;;;;;;;;;;5146231;27;20070;-74
2023/06/19 02:43:07;;;;;;;4.13;2.83;;;;;;;;;;5146520;27;20389;-73
2023/06/19 02:45:43;;;;;;;4.43;2.30;;;;;;;;;;5146096;27;20055;-74
2023/06/19 02:48:13;;;;;;;5.20;1.60;;;;;;;;;;5145979;27;20046;-73
2023/06/19 02:50:43;;;;;;;2.50;1.45;;;;;;;;;;5146380;27;20034;-73
2023/06/19 02:53:16;;;;;;;4.22;1.65;;;;;;;;;;5146483;27;20061;-73
2023/06/19 02:55:47;;;;;;;3.53;1.40;;;;;;;;;;5127111;27;20057;-73
2023/06/19 02:58:17;;;;;;;2.30;1.42;;;;;;;;;;5126814;27;20042;-74
2023/06/19 03:00:48;;;;;;;2.22;1.33;;;;;;;;;;5145952;27;20053;-73
2023/06/19 03:03:20;;;;;;;4.43;1.60;;;;;;;;;;5146003;27;20050;-74
2023/06/19 03:05:52;;;;;;;2.55;1.50;;;;;;;;;;5126761;27;20050;-73
2023/06/19 03:08:23;;;;;;;2.55;1.85;;;;;;;;;;5146033;27;20824;-73
2023/06/19 03:10:53;;;;;;;2.03;1.55;;;;;;;;;;5126331;27;20042;-73
2023/06/19 03:13:23;;;;;;;1.92;1.33;;;;;;;;;;5127027;27;20055;-73
2023/06/19 03:15:53;;;;;;;2.22;1.73;;;;;;;;;;5128198;27;20066;-72
2023/06/19 03:18:26;;;;;;;1.38;1.13;;;;;;;;;;5130184;27;20039;-74
2023/06/19 03:20:56;;;;;;;2.80;1.27;;;;;;;;;;5149372;27;20043;-73
2023/06/19 03:23:27;;;;;;;3.15;1.38;;;;;;;;;;5131306;27;20061;-74
2023/06/19 03:25:57;;;;;;;1.80;1.38;;;;;;;;;;5112740;27;20058;-73
2023/06/19 03:28:30;;;;;;;3.08;1.58;;;;;;;;;;5129914;27;20424;-74
2023/06/19 03:31:00;;;;;;;2.20;1.48;;;;;;;;;;5130614;27;20641;-73
2023/06/19 03:33:31;;;;;;;1.75;1.42;;;;;;;;;;5149375;27;20035;-73
2023/06/19 03:36:02;;;;;;;2.95;1.30;;;;;;;;;;5148960;27;20042;-74
2023/06/19 03:38:55;;;;;;;3.38;1.50;;;;;;;;;;5148569;27;20050;-73
2023/06/19 03:41:31;;;;;;;8.68;1.73;;;;;;;;;;5129704;27;20058;-74
2023/06/19 03:44:01;;;;;;;1.70;1.15;;;;;;;;;;5129323;27;20043;-74
2023/06/19 03:46:31;;;;;;;2.63;1.35;;;;;;;;;;5129646;27;20055;-74
2023/06/19 03:49:04;;;;;;;1.25;1.13;;;;;;;;;;5129198;27;20058;-74
2023/06/19 03:51:36;;;;;;;1.55;1.17;;;;;;;;;;5148659;27;20050;-73
2023/06/19 03:54:07;;;;;;;6.13;1.77;;;;;;;;;;5129394;27;20052;-73
2023/06/19 03:56:38;;;;;;;4.00;1.73;;;;;;;;;;5129884;27;20051;-72
2023/06/19 03:59:08;;;;;;;2.25;1.73;;;;;;;;;;5148831;27;20060;-73
2023/06/19 04:01:41;;;;;;;1.73;1.42;;;;;;;;;;5129616;27;20066;-75
2023/06/19 04:04:12;;;;;;;2.05;1.55;;;;;;;;;;5148451;27;20043;-73
2023/06/19 04:06:43;;;;;;;2.67;1.67;;;;;;;;;;5148507;27;20047;-73
2023/06/19 04:09:13;;;;;;;2.55;1.40;;;;;;;;;;5129191;27;20050;-72
2023/06/19 04:11:44;;;;;;;2.10;1.48;;;;;;;;;;5148488;27;20050;-74
2023/06/19 04:14:15;;;;;;;3.08;1.77;;;;;;;;;;5129839;27;20397;-71
2023/06/19 04:16:45;;;;;;;4.60;1.70;;;;;;;;;;5148559;27;20050;-72
2023/06/19 04:19:16;;;;;;;4.38;1.75;;;;;;;;;;5129540;27;20054;-72
2023/06/19 04:21:46;;;;;;;5.03;1.90;;;;;;;;;;5147967;27;20046;-72
2023/06/19 04:24:17;;;;;;;3.40;2.20;;;;;;;;;;5148886;27;20058;-72
2023/06/19 04:26:48;;;;;;;2.83;1.83;;;;;;;;;;5148060;27;20497;-71
2023/06/19 04:29:18;;;;;;;2.67;1.75;;;;;;;;;;5148047;27;20050;-73
2023/06/19 04:31:50;;;;;;;2.60;2.10;;;;;;;;;;5148004;27;20066;-73
2023/06/19 04:34:21;;;;;;;2.80;2.08;;;;;;;;;;5147957;27;20047;-72
2023/06/19 04:36:53;;;;;;;2.40;1.55;;;;;;;;;;5147884;27;20046;-72
2023/06/19 04:39:25;;;;;;;1.90;1.63;;;;;;;;;;5148514;27;20405;-73
2023/06/19 04:41:54;;;;;;;;;;;;;;;;;;5148694;27;20046;-73
2023/06/19 04:44:25;;;;;;;1.42;1.15;;;;;;;;;;5147671;27;19922;-73
2023/06/19 04:47:00;;;;;;;4.18;1.63;;;;;;;;;;5148028;27;20053;-73
2023/06/19 04:49:31;;;;;;;3.78;1.70;;;;;;;;;;5147636;27;20059;-73
2023/06/19 04:52:03;;;;;;;2.00;1.33;;;;;;;;;;5129044;27;20050;-73
2023/06/19 04:54:33;;;;;;;3.20;1.92;;;;;;;;;;5147835;27;20055;-73
2023/06/19 04:57:04;;;;;;;3.22;1.88;;;;;;;;;;5148113;27;20069;-73
2023/06/19 04:59:36;;;;;;;2.72;1.77;;;;;;;;;;5147151;27;20384;-73
2023/06/19 05:02:07;;;;;;;3.35;1.70;;;;;;;;;;5147553;27;20046;-72
2023/06/19 05:04:37;;;;;;;7.20;1.73;;;;;;;;;;5147571;27;20039;-73
2023/06/19 05:07:10;;;;;;;2.30;1.65;;;;;;;;;;5128599;27;20509;-73
2023/06/19 05:09:41;;;;;;;4.53;1.70;;;;;;;;;;5147438;27;20046;-74
2023/06/19 05:12:12;;;;;;;2.40;1.70;;;;;;;;;;5147192;27;20046;-73
2023/06/19 05:14:42;;;;;;;3.10;2.30;;;;;;;;;;5147269;27;20557;-73
2023/06/19 05:17:15;;;;;;;3.28;1.95;;;;;;;;;;5147030;27;20058;-74
2023/06/19 05:19:46;;;;;;;2.03;1.73;;;;;;;;;;5147239;27;20042;-73
2023/06/19 05:22:18;;;;;;;2.83;2.00;;;;;;;;;;5147163;27;20043;-72
2023/06/19 05:24:48;;;;;;;5.35;2.30;;;;;;;;;;5146936;27;20913;-72
2023/06/19 05:27:19;;;;;;;3.72;1.98;;;;;;;;;;5147659;27;20043;-73
2023/06/19 05:29:50;;;;;;;4.07;2.38;;;;;;;;;;5147015;27;20050;-72
2023/06/19 05:32:21;;;;;;;3.08;1.65;;;;;;;;;;5147134;27;20042;-73
2023/06/19 05:34:51;;;;;;;3.28;1.55;;;;;;;;;;5146767;27;20439;-73
2023/06/19 05:37:22;;;;;;;3.25;2.00;;;;;;;;;;5145652;27;20051;-74
2023/06/19 05:39:53;;;;;;;2.65;1.63;;;;;;;;;;5146942;27;20042;-74
2023/06/19 05:42:23;;;;;;;3.80;1.90;;;;;;;;;;5147361;27;20388;-72
2023/06/19 05:44:53;;;;;;;3.65;2.15;;;;;;;;;;5146427;27;20058;-73
2023/06/19 05:47:25;;;;;;;2.70;1.80;;;;;;;;;;5146480;27;20525;-73
2023/06/19 05:49:58;;;;;;;4.13;2.08;;;;;;;;;;5129081;27;20393;-72
2023/06/19 05:52:28;;;;;;;6.32;2.40;;;;;;;;;;5147060;27;20042;-74
2023/06/19 05:55:00;;;;;;;2.53;1.70;;;;;;;;;;5146630;27;20073;-73
2023/06/19 05:57:30;;;;;;;3.50;1.70;;;;;;;;;;5146591;27;20062;-73
2023/06/19 06:00:03;;;;;;;2.67;1.70;;;;;;;;;;5126949;27;20047;-73
2023/06/19 06:02:41;;;;;;;3.03;1.83;;;;;;;;;;5151809;27;20051;-73
2023/06/19 06:05:12;;;;;;;5.60;2.03;;;;;;;;;;5146911;27;20520;-72
2023/06/19 06:07:43;;;;;;;5.03;2.75;;;;;;;;;;5147078;27;20501;-73
2023/06/19 06:10:13;;;;;;;18.55;3.08;;;;;;;;;;5146496;27;20043;-73
2023/06/19 06:12:44;;;;;;;6.03;2.33;;;;;;;;;;5145846;27;20055;-72
2023/06/19 06:15:14;;;;;;;44.20;3.97;;;;;;;;;;5146194;27;20039;-73
2023/06/19 06:17:44;;;;;;;47.53;4.32;;;;;;;;;;5146453;27;20061;-73
2023/06/19 06:20:16;;;;;;;24.30;2.72;;;;;;;;;;5146422;27;20049;-73
2023/06/19 06:22:47;;;;;;;66.90;4.15;;;;;;;;;;5146559;27;20058;-73
2023/06/19 06:25:19;;;;;;;37.83;2.97;;;;;;;;;;5145806;27;20047;-73
2023/06/19 06:27:50;;;;;;;46.70;3.67;;;;;;;;;;5146664;27;20043;-72
2023/06/19 06:30:20;;;;;;;73.38;3.80;;;;;;;;;;5146095;27;20523;-73
2023/06/19 06:32:52;;;;;;;31.45;3.03;;;;;;;;;;5145978;27;20039;-73
2023/06/19 06:35:22;;;;;;;;;;;;;;;;;;5146595;27;20042;-73
2023/06/19 06:37:53;;;;;;;6.75;2.53;;;;;;;;;;5127516;27;19923;-73
2023/06/19 06:40:24;;;;;;;23.15;3.10;;;;;;;;;;5127441;27;20049;-73
2023/06/19 06:42:54;;;;;;;32.88;3.10;;;;;;;;;;5146781;27;20543;-73
2023/06/19 06:45:25;;;;;;;32.08;3.30;;;;;;;;;;5146308;27;20055;-73
2023/06/19 06:47:57;;;;;;;24.88;2.47;;;;;;;;;;5146823;27;20054;-73
2023/06/19 06:50:28;;;;;;;15.15;2.83;;;;;;;;;;5149607;27;20042;-74
2023/06/19 06:52:58;;;;;;;31.63;3.05;;;;;;;;;;5149833;27;20065;-73
2023/06/19 06:55:28;;;;;;;25.60;2.63;;;;;;;;;;5150116;27;20042;-73
2023/06/19 06:57:59;;;;;;;10.18;2.58;;;;;;;;;;5150105;27;20049;-73
2023/06/19 07:00:31;;;;;;;16.25;2.60;;;;;;;;;;5150026;27;20042;-73
2023/06/19 07:03:01;;;;;;;2.90;2.17;;;;;;;;;;5131403;27;20054;-73
2023/06/19 07:05:30;;;;;;;;;;;;;;;;;;5131971;27;20416;-73
2023/06/19 07:08:01;;;;;;;2.80;1.80;;;;;;;;;;5150370;27;19923;-74
2023/06/19 07:10:31;;;;;;;;;;;;;;;;;;5149864;27;20047;-73
2023/06/19 07:13:02;;;;;;;12.45;2.03;;;;;;;;;;5149598;27;19927;-73
2023/06/19 07:15:32;;;;;;;3.88;2.35;;;;;;;;;;5149620;27;20408;-73
2023/06/19 07:18:03;;;;;;;2.55;1.88;;;;;;;;;;5149603;27;20042;-74
2023/06/19 07:20:33;;;;;;;3.00;2.08;;;;;;;;;;5130380;27;20062;-73
2023/06/19 07:23:06;;;;;;;7.18;2.63;;;;;;;;;;5149511;27;20045;-74
2023/06/19 07:25:37;;;;;;;3.25;2.05;;;;;;;;;;5149502;27;20692;-73
2023/06/19 07:28:07;;;;;;;2.92;2.30;;;;;;;;;;5149296;27;20053;-74
2023/06/19 07:30:37;;;;;;;4.80;2.30;;;;;;;;;;5149186;27;20043;-73
2023/06/19 07:33:08;;;;;;;5.75;2.67;;;;;;;;;;5149127;27;20417;-73
2023/06/19 07:35:39;;;;;;;7.70;2.25;;;;;;;;;;5149232;27;20501;-73
2023/06/19 07:38:09;;;;;;;12.30;2.67;;;;;;;;;;5147649;27;20058;-74
2023/06/19 07:40:39;;;;;;;2.95;2.08;;;;;;;;;;5149562;27;20054;-73
2023/06/19 07:43:09;;;;;;;85.75;4.15;;;;;;;;;;5149021;27;20050;-73
2023/06/19 07:45:41;;;;;;;25.52;2.42;;;;;;;;;;5149172;27;20039;-73
2023/06/19 07:48:11;;;;;;;58.30;3.33;;;;;;;;;;5147807;27;20069;-73
2023/06/19 07:50:42;;;;;;;17.75;2.63;;;;;;;;;;5130591;27;20054;-73
2023/06/19 07:53:11;;;;;;;78.72;3.78;;;;;;;;;;5149051;27;20046;-73
2023/06/19 07:55:43;;;;;;;53.83;3.10;;;;;;;;;;5148571;27;20039;-73
2023/06/19 07:58:13;;;;;;;36.60;2.70;;;;;;;;;;5148851;27;20055;-72
2023/06/19 08:00:43;;;;;;;50.38;2.78;;;;;;;;;;5148029;27;20039;-73
2023/06/19 08:03:13;;;;;;;28.45;2.28;;;;;;;;;;5148654;27;20066;-73
2023/06/19 08:05:44;;;;;;;6.85;1.90;;;;;;;;;;5148319;27;20049;-74
2023/06/19 08:08:15;;;;;;;3.97;1.50;;;;;;;;;;5148791;27;20047;-73
2023/06/19 08:10:46;;;;;;;7.07;1.58;;;;;;;;;;5148536;27;20042;-73
2023/06/19 08:13:17;;;;;;;2.85;1.58;;;;;;;;;;5147951;27;20527;-74
2023/06/19 08:15:47;;;;;;;2.08;1.52;;;;;;;;;;5130138;27;20053;-73
2023/06/19 08:18:18;;;;;;;3.03;2.13;;;;;;;;;;5148373;27;20069;-74
2023/06/19 08:20:49;;;;;;;7.50;1.33;;;;;;;;;;5148393;27;20043;-74
2023/06/19 08:23:19;;;;;;;1.65;1.25;;;;;;;;;;5148445;27;20043;-72
2023/06/19 08:25:50;;;;;;;2.40;1.42;;;;;;;;;;5148077;27;20104;-75
2023/06/19 08:28:22;;;;;;;2.38;1.42;;;;;;;;;;5148605;27;20404;-74
2023/06/19 08:30:52;;;;;;;2.20;1.08;;;;;;;;;;5148447;27;20043;-74
2023/06/19 08:33:23;;;;;;;2.10;1.55;;;;;;;;;;5147840;27;20058;-74
2023/06/19 08:35:54;;;;;;;2.47;1.70;;;;;;;;;;5148190;27;20046;-73
2023/06/19 08:38:24;;;;;;;2.47;1.60;;;;;;;;;;5148095;27;20047;-72
2023/06/19 08:40:55;;;;;;;3.30;1.70;;;;;;;;;;5147757;27;20049;-75
2023/06/19 08:43:27;;;;;;;2.60;1.70;;;;;;;;;;5148222;27;20401;-73
2023/06/19 08:46:11;;;;;;;2.17;1.45;;;;;;;;;;5148272;27;20053;-73
2023/06/19 08:48:43;;;;;;;2.40;1.60;;;;;;;;;;5147534;27;20057;-73
2023/06/19 08:51:14;;;;;;;3.28;1.50;;;;;;;;;;5129771;27;20039;-74
2023/06/19 08:53:54;;;;;;;1.83;1.27;;;;;;;;;;5129889;27;20051;-72
2023/06/19 08:56:24;;;;;;;3.83;1.75;;;;;;;;;;5147497;27;20038;-74
2023/06/19 08:58:54;;;;;;;;;;;;;;;;;;5148029;27;20047;-74
2023/06/19 09:01:26;;;;;;;8.10;1.20;;;;;;;;;;5147119;27;20439;-73
2023/06/19 09:03:57;;;;;;;3.40;1.42;;;;;;;;;;5147346;27;20042;-72
2023/06/19 09:06:28;;;;;;;4.10;1.80;;;;;;;;;;5128959;27;20070;-74
2023/06/19 09:09:00;;;;;;;2.88;1.90;;;;;;;;;;5147513;27;20405;-74
2023/06/19 09:11:33;;;;;;;2.70;1.73;;;;;;;;;;5128752;27;20047;-73
2023/06/19 09:14:03;;;;;;;2.13;1.63;;;;;;;;;;5146846;27;20046;-74
2023/06/19 09:16:41;;;;;;;2.63;2.15;;;;;;;;;;5147320;27;20057;-73
2023/06/19 09:19:20;;;;;;;4.05;1.70;;;;;;;;;;5147100;27;20116;-74
2023/06/19 09:21:51;;;;;;;3.05;1.65;;;;;;;;;;5146787;27;20050;-74
2023/06/19 09:24:24;;;;;;;3.95;1.83;;;;;;;;;;5146958;27;20057;-74
2023/06/19 09:27:17;;;;;;;2.83;1.90;;;;;;;;;;5146651;27;20043;-73
2023/06/19 09:29:51;;;;;;;3.20;2.33;;;;;;;;;;5146928;27;20049;-72
2023/06/19 09:32:24;;;;;;;3.55;2.40;;;;;;;;;;5146902;27;20053;-74
2023/06/19 09:34:59;;;;;;;3.10;1.88;;;;;;;;;;5127963;27;20140;-74
2023/06/19 09:37:30;;;;;;;3.75;1.95;;;;;;;;;;5147291;27;20050;-74
2023/06/19 09:40:11;;;;;;;2.55;1.88;;;;;;;;;;5127455;27;20509;-74
2023/06/19 09:42:43;;;;;;;3.78;2.75;;;;;;;;;;5146965;27;20053;-73
2023/06/19 09:45:23;;;;;;;3.60;2.28;;;;;;;;;;5126969;27;20054;-74
2023/06/19 09:47:54;;;;;;;7.75;2.20;;;;;;;;;;5146384;27;20062;-76
2023/06/19 09:50:44;;;;;;;3.72;2.15;;;;;;;;;;5127502;27;20089;-72
2023/06/19 09:53:20;;;;;;;5.13;2.80;;;;;;;;;;5146740;27;20522;-74
2023/06/19 09:55:50;;;;;;;5.03;2.75;;;;;;;;;;5126851;27;20065;-73
2023/06/19 09:58:21;;;;;;;4.82;2.80;;;;;;;;;;5147122;27;20415;-73
2023/06/19 10:00:52;;;;;;;6.95;3.03;;;;;;;;;;5147098;27;20497;-73
2023/06/19 10:03:31;;;;;;;4.35;2.80;;;;;;;;;;5146286;27;20065;-73
2023/06/19 10:06:04;;;;;;;3.55;2.80;;;;;;;;;;5146058;27;20046;-74
2023/06/19 10:08:43;;;;;;;3.78;2.05;;;;;;;;;;5146772;27;20053;-73
2023/06/19 10:11:17;;;;;;;4.55;2.60;;;;;;;;;;5146264;27;20062;-73
2023/06/19 10:13:48;;;;;;;3.25;2.03;;;;;;;;;;5146233;27;20047;-74
2023/06/19 10:16:22;;;;;;;5.70;2.50;;;;;;;;;;5146238;27;20046;-74
2023/06/19 10:18:54;;;;;;;6.47;2.70;;;;;;;;;;5146511;27;20073;-72
2023/06/19 10:21:24;;;;;;;3.97;2.65;;;;;;;;;;5146066;27;20042;-72
2023/06/19 10:23:58;;;;;;;4.90;2.45;;;;;;;;;;5147118;27;20497;-73
2023/06/19 10:26:33;;;;;;;3.88;2.40;;;;;;;;;;5150886;27;20042;-73
2023/06/19 10:29:15;;;;;;;3.13;2.30;;;;;;;;;;5150024;27;20043;-73
2023/06/19 10:31:46;;;;;;;4.68;2.63;;;;;;;;;;5150748;27;20058;-75
2023/06/19 10:34:17;;;;;;;4.03;2.08;;;;;;;;;;5150130;27;20047;-73
2023/06/19 10:36:47;;;;;;;3.47;2.28;;;;;;;;;;5150142;27;20039;-73
2023/06/19 10:39:18;;;;;;;4.93;2.63;;;;;;;;;;5150214;27;20046;-72
2023/06/19 10:41:49;;;;;;;5.30;3.13;;;;;;;;;;5150462;27;20047;-73
2023/06/19 10:44:24;;;;;;;3.78;2.40;;;;;;;;;;5150475;27;20041;-74
2023/06/19 10:46:55;;;;;;;3.63;2.40;;;;;;;;;;5150591;27;20054;-73
2023/06/19 10:49:24;;;;;;;4.45;2.53;;;;;;;;;;5149655;27;20046;-72
2023/06/19 10:51:59;;;;;;;3.30;2.03;;;;;;;;;;5149944;27;20508;-72
2023/06/19 10:54:31;;;;;;;5.70;2.00;;;;;;;;;;5131925;27;20460;-73
2023/06/19 10:57:05;;;;;;;3.97;2.30;;;;;;;;;;5149996;27;20057;-75
2023/06/19 10:59:35;;;;;;;3.58;1.92;;;;;;;;;;5131980;27;20046;-74
2023/06/19 11:02:06;;;;;;;4.40;2.47;;;;;;;;;;5150666;27;20054;-73
2023/06/19 11:04:39;;;;;;;4.85;2.28;;;;;;;;;;5150158;27;20511;-73
2023/06/19 11:07:10;;;;;;;4.00;2.58;;;;;;;;;;5150002;27;20051;-73
2023/06/19 11:09:40;;;;;;;5.82;3.38;;;;;;;;;;5150121;27;20057;-74
2023/06/19 11:12:19;;;;;;;5.90;3.20;;;;;;;;;;5150053;27;20754;-72
2023/06/19 11:14:49;;;;;;;5.65;3.80;;;;;;;;;;5149760;27;20046;-73
2023/06/19 11:17:23;;;;;;;5.25;3.22;;;;;;;;;;5150365;27;20054;-73
2023/06/19 11:19:56;;;;;;;3.60;1.90;;;;;;;;;;5149968;27;20528;-72
2023/06/19 11:22:42;;;;;;;2.50;1.90;;;;;;;;;;5150042;27;20046;-74
2023/06/19 11:25:14;;;;;;;4.05;2.35;;;;;;;;;;5130751;27;20051;-72
2023/06/19 11:27:46;;;;;;;4.32;2.70;;;;;;;;;;5149793;27;20039;-72
2023/06/19 11:30:16;;;;;;;4.95;2.78;;;;;;;;;;5149518;27;20050;-73
2023/06/19 11:32:50;;;;;;;13.00;3.25;;;;;;;;;;5149089;27;20043;-72
2023/06/19 11:35:22;;;;;;;5.82;3.15;;;;;;;;;;5148539;27;20043;-73
2023/06/19 11:37:53;;;;;;;4.63;2.50;;;;;;;;;;5149048;27;20042;-75
2023/06/19 11:40:24;;;;;;;14.15;3.80;;;;;;;;;;5149379;27;20421;-72
2023/06/19 11:42:57;;;;;;;5.82;2.42;;;;;;;;;;5130667;27;20047;-72
2023/06/19 11:45:28;;;;;;;3.03;2.22;;;;;;;;;;5130761;27;20042;-72
2023/06/19 11:48:05;;;;;;;8.32;2.42;;;;;;;;;;5148814;27;20043;-73
2023/06/19 11:50:35;;;;;;;3.60;2.17;;;;;;;;;;5149179;27;20042;-73
2023/06/19 11:53:06;;;;;;;12.93;2.70;;;;;;;;;;5130352;27;20054;-74
2023/06/19 11:55:37;;;;;;;8.85;2.20;;;;;;;;;;5149008;27;20497;-76
2023/06/19 11:58:08;;;;;;;4.95;2.10;;;;;;;;;;5148881;27;20505;-73
2023/06/19 12:00:38;;;;;;;3.60;1.75;;;;;;;;;;5148535;27;20057;-73
2023/06/19 12:03:10;;;;;;;3.88;2.20;;;;;;;;;;5149110;27;20405;-73
2023/06/19 12:05:41;;;;;;;9.00;2.60;;;;;;;;;;5148696;27;20046;-73
2023/06/19 12:08:12;;;;;;;10.38;1.70;;;;;;;;;;5148120;27;20038;-73
2023/06/19 12:10:42;;;;;;;3.70;1.60;;;;;;;;;;5148468;27;20054;-72
2023/06/19 12:13:12;;;;;;;11.02;1.60;;;;;;;;;;5129133;27;20050;-72
2023/06/19 12:15:45;;;;;;;4.75;2.08;;;;;;;;;;5148701;27;20409;-73
2023/06/19 12:18:17;;;;;;;1.80;1.50;;;;;;;;;;5148394;27;20050;-72
2023/06/19 12:20:47;;;;;;;6.38;2.00;;;;;;;;;;5130337;27;20493;-72
2023/06/19 12:23:17;;;;;;;4.57;1.73;;;;;;;;;;5148153;27;20038;-74
2023/06/19 12:25:47;;;;;;;6.30;1.83;;;;;;;;;;5147702;27;20493;-73
2023/06/19 12:28:18;;;;;;;7.25;1.80;;;;;;;;;;5148529;27;20053;-73
2023/06/19 12:30:51;;;;;;;4.63;1.70;;;;;;;;;;5128744;27;20057;-73
2023/06/19 12:33:22;;;;;;;3.35;1.70;;;;;;;;;;5148091;27;20046;-73
2023/06/19 12:35:53;;;;;;;3.10;1.40;;;;;;;;;;5147629;27;20077;-73
2023/06/19 12:38:23;;;;;;;2.45;1.38;;;;;;;;;;5147992;27;20051;-73
2023/06/19 12:40:55;;;;;;;3.47;1.45;;;;;;;;;;5147946;27;20050;-73
2023/06/19 12:43:26;;;;;;;3.03;1.63;;;;;;;;;;5148390;27;20051;-73
2023/06/19 12:45:57;;;;;;;3.58;1.67;;;;;;;;;;5148152;27;20054;-74
2023/06/19 12:48:28;;;;;;;2.55;1.67;;;;;;;;;;5147186;27;20066;-73
2023/06/19 12:51:00;;;;;;;5.18;2.33;;;;;;;;;;5148099;27;20050;-73
2023/06/19 12:53:31;;;;;;;1.75;1.35;;;;;;;;;;5147556;27;20066;-73
2023/06/19 12:56:01;;;;;;;3.97;2.05;;;;;;;;;;5147652;27;20043;-74
2023/06/19 12:58:38;;;;;;;4.00;1.63;;;;;;;;;;5148375;27;20067;-73
2023/06/19 13:01:08;;;;;;;1.85;1.27;;;;;;;;;;5148273;27;20058;-74
2023/06/19 13:03:39;;;;;;;2.20;1.42;;;;;;;;;;5147672;27;20073;-73
2023/06/19 13:06:09;;;;;;;3.10;1.70;;;;;;;;;;5147796;27;20057;-73
2023/06/19 13:08:42;;;;;;;3.65;1.60;;;;;;;;;;5127860;27;20046;-73
2023/06/19 13:11:13;;;;;;;2.88;1.60;;;;;;;;;;5146805;27;20428;-72
2023/06/19 13:13:44;;;;;;;5.53;1.63;;;;;;;;;;5146638;27;20051;-72
2023/06/19 13:16:15;;;;;;;5.95;2.42;;;;;;;;;;5147546;27;20042;-73
2023/06/19 13:18:56;;;;;;;2.88;2.25;;;;;;;;;;5147534;27;20054;-73
2023/06/19 13:21:26;;;;;;;3.88;2.60;;;;;;;;;;5147287;27;20053;-73
2023/06/19 13:23:58;;;;;;;6.20;2.35;;;;;;;;;;5147081;27;20047;-73
2023/06/19 13:26:28;;;;;;;4.80;2.30;;;;;;;;;;5128052;27;20054;-73
2023/06/19 13:29:00;;;;;;;3.90;2.13;;;;;;;;;;5147297;27;20050;-73
2023/06/19 13:31:31;;;;;;;3.50;2.10;;;;;;;;;;5127341;27;20046;-75
2023/06/19 13:34:01;;;;;;;3.55;2.13;;;;;;;;;;5146969;27;20489;-73
2023/06/19 13:36:31;;;;;;;4.28;3.03;;;;;;;;;;5146531;27;20409;-73
2023/06/19 13:39:02;;;;;;;5.50;2.75;;;;;;;;;;5146725;27;20038;-76
2023/06/19 13:41:34;;;;;;;5.75;2.35;;;;;;;;;;5146994;27;20047;-74
2023/06/19 13:44:04;;;;;;;6.95;2.35;;;;;;;;;;5146591;27;20038;-73
2023/06/19 13:46:35;;;;;;;4.38;2.38;;;;;;;;;;5146743;27;20050;-73
2023/06/19 13:49:06;;;;;;;4.85;2.30;;;;;;;;;;5146368;27;20050;-73
2023/06/19 13:51:36;;;;;;;4.07;2.10;;;;;;;;;;5146849;27;20039;-73
2023/06/19 13:54:07;;;;;;;1.98;1.30;;;;;;;;;;5146486;27;20038;-75
2023/06/19 13:56:38;;;;;;;7.07;1.42;;;;;;;;;;5147174;27;20051;-74
2023/06/19 13:59:08;;;;;;;2.28;1.40;;;;;;;;;;5146466;27;20054;-73
2023/06/19 14:01:41;;;;;;;2.63;1.20;;;;;;;;;;5145945;27;20508;-73
2023/06/19 14:04:12;;;;;;;2.83;1.25;;;;;;;;;;5147090;27;20047;-74
2023/06/19 14:06:43;;;;;;;1.60;1.40;;;;;;;;;;5146427;27;20043;-75
2023/06/19 14:09:14;;;;;;;2.70;1.23;;;;;;;;;;5128213;27;20047;-73
2023/06/19 14:11:44;;;;;;;6.32;1.40;;;;;;;;;;5127908;27;20532;-73
2023/06/19 14:14:15;;;;;;;4.95;1.40;;;;;;;;;;5146042;27;20047;-74
2023/06/19 14:16:45;;;;;;;5.15;1.38;;;;;;;;;;5146103;27;20043;-74
2023/06/19 14:19:16;;;;;;;3.15;1.33;;;;;;;;;;5127087;27;20047;-74
2023/06/19 14:21:46;;;;;;;2.85;1.35;;;;;;;;;;5147205;27;20051;-74
2023/06/19 14:24:17;;;;;;;1.83;1.17;;;;;;;;;;5146094;27;20070;-74
2023/06/19 14:26:48;;;;;;;3.45;1.10;;;;;;;;;;5146509;27;20554;-74
2023/06/19 14:29:18;;;;;;;3.00;1.25;;;;;;;;;;5146392;27;20046;-74
2023/06/19 14:31:52;;;;;;;2.85;1.60;;;;;;;;;;5146594;27;20584;-75
2023/06/19 14:34:23;;;;;;;5.28;1.80;;;;;;;;;;5146607;27;20061;-74
2023/06/19 14:36:54;;;;;;;1.42;1.20;;;;;;;;;;5145816;27;20057;-74
2023/06/19 14:39:24;;;;;;;1.75;1.23;;;;;;;;;;5146447;27;20057;-74
2023/06/19 14:41:54;;;;;;;2.08;1.20;;;;;;;;;;5146134;27;20046;-74
2023/06/19 14:44:25;;;;;;;2.30;1.20;;;;;;;;;;5146236;27;20528;-76
2023/06/19 14:46:56;;;;;;;1.92;1.02;;;;;;;;;;5145698;27;20043;-74
2023/06/19 14:49:27;;;;;;;3.15;1.35;;;;;;;;;;5146397;27;20649;-73
2023/06/19 14:51:58;;;;;;;8.73;2.05;;;;;;;;;;5146578;27;20497;-75
2023/06/19 14:54:29;;;;;;;2.53;1.15;;;;;;;;;;5146015;27;20047;-75
2023/06/19 14:57:00;;;;;;;2.10;1.10;;;;;;;;;;5145911;27;20524;-78
2023/06/19 14:59:31;;;;;;;3.97;1.63;;;;;;;;;;5145756;27;20148;-73
2023/06/19 15:02:06;;;;;;;2.35;1.23;;;;;;;;;;5146130;27;20050;-73
2023/06/19 15:04:38;;;;;;;2.38;1.17;;;;;;;;;;5145857;27;20047;-74
2023/06/19 15:07:10;;;;;;;2.63;1.25;;;;;;;;;;5145934;27;20500;-73
2023/06/19 15:09:41;;;;;;;2.72;2.10;;;;;;;;;;5145913;27;20405;-74